createdAt,value
2023-04-30T00:02:16.452Z,13.77
2023-04-30T00:04:46.248Z,13.13
2023-04-30T00:07:14.672Z,15.40
2023-04-30T00:09:43.192Z,12.67
2023-04-30T00:12:11.434Z,11.17
2023-04-30T00:14:39.678Z,13.13
2023-04-30T00:17:07.892Z,12.77
2023-04-30T00:19:36.243Z,11.17
2023-04-30T00:22:06.498Z,12.00
2023-04-30T00:24:34.816Z,12.60
2023-04-30T00:27:03.406Z,11.10
2023-04-30T00:29:31.668Z,15.07
2023-04-30T00:31:59.957Z,13.03
2023-04-30T00:34:29.090Z,13.97
2023-04-30T00:36:57.455Z,10.30
2023-04-30T00:39:27.208Z,12.03
2023-04-30T00:41:55.517Z,11.03
2023-04-30T00:44:23.741Z,12.47
2023-04-30T00:46:52.244Z,13.13
2023-04-30T00:49:21.059Z,10.53
2023-04-30T00:51:49.377Z,11.87
2023-04-30T00:54:18.132Z,12.43
2023-04-30T00:56:47.984Z,12.73
2023-04-30T00:59:16.610Z,10.67
2023-04-30T01:01:44.912Z,13.53
2023-04-30T01:04:13.597Z,12.97
2023-04-30T01:06:43.356Z,13.40
2023-04-30T01:09:12.121Z,14.87
2023-04-30T01:11:54.017Z,15.00
2023-04-30T01:14:28.777Z,14.03
2023-04-30T01:17:06.029Z,13.60
2023-04-30T01:19:42.635Z,12.87
2023-04-30T01:22:16.098Z,15.53
2023-04-30T01:25:12.313Z,15.40
2023-04-30T01:28:03.668Z,15.33
2023-04-30T01:30:33.550Z,11.73
2023-04-30T01:33:02.165Z,13.50
2023-04-30T01:35:44.897Z,13.50
2023-04-30T01:38:23.004Z,13.47
2023-04-30T01:40:58.024Z,13.43
2023-04-30T01:43:35.219Z,13.30
2023-04-30T01:46:13.297Z,15.67
2023-04-30T01:48:48.623Z,14.40
2023-04-30T01:51:25.279Z,16.40
2023-04-30T01:53:56.692Z,17.87
2023-04-30T01:56:32.704Z,15.63
2023-04-30T01:59:03.973Z,15.20
2023-04-30T02:01:33.684Z,15.90
2023-04-30T02:04:03.737Z,14.47
2023-04-30T02:06:32.392Z,15.73
2023-04-30T02:09:06.261Z,12.67
2023-04-30T02:11:34.647Z,14.60
2023-04-30T02:14:04.214Z,15.30
2023-04-30T02:16:32.547Z,13.60
2023-04-30T02:19:01.697Z,16.20
2023-04-30T02:21:30.052Z,15.03
2023-04-30T02:23:58.352Z,18.37
2023-04-30T02:26:26.722Z,14.77
2023-04-30T02:28:55.133Z,15.93
2023-04-30T02:31:24.905Z,16.17
2023-04-30T02:33:53.247Z,15.50
2023-04-30T02:36:21.666Z,19.13
2023-04-30T02:38:49.910Z,13.47
2023-04-30T02:41:18.384Z,16.87
2023-04-30T02:43:46.703Z,17.37
2023-04-30T02:46:14.994Z,16.67
2023-04-30T02:48:44.692Z,17.53
2023-04-30T02:51:13.379Z,16.83
2023-04-30T02:53:41.777Z,15.33
2023-04-30T02:56:10.125Z,17.50
2023-04-30T02:58:38.368Z,17.87
2023-04-30T03:01:07.049Z,15.47
2023-04-30T03:03:35.449Z,14.87
2023-04-30T03:06:05.343Z,16.17
2023-04-30T03:08:33.751Z,15.23
2023-04-30T03:11:02.451Z,16.63
2023-04-30T03:13:30.941Z,15.30
2023-04-30T03:16:00.333Z,16.73
2023-04-30T03:18:29.164Z,17.00
2023-04-30T03:20:57.992Z,19.17
2023-04-30T03:23:29.252Z,21.13
2023-04-30T03:25:57.958Z,16.07
2023-04-30T03:28:26.248Z,17.73
2023-04-30T03:30:54.477Z,19.33
2023-04-30T03:33:22.842Z,18.10
2023-04-30T03:35:51.854Z,19.53
2023-04-30T03:38:20.126Z,17.67
2023-04-30T03:40:49.768Z,22.33
2023-04-30T03:43:18.056Z,17.60
2023-04-30T03:45:46.516Z,19.73
2023-04-30T03:48:14.875Z,20.33
2023-04-30T03:50:43.256Z,20.17
2023-04-30T03:53:13.851Z,21.03
2023-04-30T03:55:42.737Z,20.27
2023-04-30T03:58:12.548Z,20.03
2023-04-30T04:00:42.677Z,23.00
2023-04-30T04:03:11.561Z,20.03
2023-04-30T04:05:42.198Z,23.60
2023-04-30T04:08:11.285Z,19.90
2023-04-30T04:10:40.176Z,19.23
2023-04-30T04:13:09.934Z,21.27
2023-04-30T04:15:40.865Z,21.17
2023-04-30T04:18:09.239Z,19.10
2023-04-30T04:20:37.492Z,19.60
2023-04-30T04:23:05.748Z,17.73
2023-04-30T04:25:34.297Z,19.03
2023-04-30T04:28:03.051Z,18.73
2023-04-30T04:30:31.679Z,20.77
2023-04-30T04:33:01.414Z,18.13
2023-04-30T04:35:31.120Z,16.90
2023-04-30T04:37:59.412Z,20.17
2023-04-30T04:40:29.197Z,20.47
2023-04-30T04:42:58.227Z,19.43
2023-04-30T04:45:26.784Z,22.13
2023-04-30T04:47:55.239Z,23.03
2023-04-30T04:50:25.405Z,20.33
2023-04-30T04:52:53.740Z,21.83
2023-04-30T04:55:21.955Z,21.40
2023-04-30T04:57:50.187Z,22.27
2023-04-30T05:00:19.312Z,23.77
2023-04-30T05:02:47.697Z,21.70
2023-04-30T05:05:16.160Z,21.07
2023-04-30T05:07:46.048Z,21.47
2023-04-30T05:10:14.353Z,19.07
2023-04-30T05:12:42.554Z,21.27
2023-04-30T05:15:11.691Z,17.23
2023-04-30T05:17:39.985Z,21.43
2023-04-30T05:20:09.464Z,21.50
2023-04-30T05:22:37.694Z,20.97
2023-04-30T05:25:08.580Z,21.93
2023-04-30T05:27:37.257Z,19.17
2023-04-30T05:30:06.770Z,23.47
2023-04-30T05:32:36.173Z,23.87
2023-04-30T05:35:04.895Z,19.93
2023-04-30T05:37:33.161Z,23.37
2023-04-30T05:40:01.526Z,22.43
2023-04-30T05:42:31.120Z,47.20
2023-04-30T05:44:59.383Z,38.40
2023-04-30T05:47:27.614Z,29.50
2023-04-30T05:49:56.880Z,24.63
2023-04-30T05:52:25.146Z,22.37
2023-04-30T05:54:53.998Z,27.90
2023-04-30T05:57:22.277Z,22.87
2023-04-30T05:59:51.900Z,24.27
2023-04-30T06:02:20.258Z,25.43
2023-04-30T06:04:49.110Z,25.87
2023-04-30T06:07:17.439Z,26.30
2023-04-30T06:09:45.673Z,21.33
2023-04-30T06:12:14.157Z,25.13
2023-04-30T06:14:45.442Z,29.13
2023-04-30T06:17:15.979Z,24.47
2023-04-30T06:19:44.259Z,25.20
2023-04-30T06:22:12.510Z,22.97
2023-04-30T06:24:40.728Z,26.23
2023-04-30T06:27:09.040Z,22.43
2023-04-30T06:29:37.311Z,25.70
2023-04-30T06:32:08.159Z,25.17
2023-04-30T06:34:38.723Z,21.37
2023-04-30T06:37:07.099Z,22.13
2023-04-30T06:39:35.359Z,24.37
2023-04-30T06:42:04.080Z,22.93
2023-04-30T06:44:33.127Z,20.73
2023-04-30T06:47:01.464Z,20.10
2023-04-30T06:49:29.779Z,20.07
2023-04-30T06:51:59.531Z,20.43
2023-04-30T06:54:27.805Z,21.37
2023-04-30T06:56:56.033Z,20.83
2023-04-30T06:59:24.268Z,18.17
2023-04-30T07:01:52.583Z,21.83
2023-04-30T07:04:21.099Z,20.70
2023-04-30T07:06:49.343Z,19.70
2023-04-30T07:09:18.996Z,21.57
2023-04-30T07:11:47.411Z,20.27
2023-04-30T07:14:15.630Z,18.90
2023-04-30T07:16:43.833Z,17.07
2023-04-30T07:19:12.337Z,18.30
2023-04-30T07:21:40.581Z,20.97
2023-04-30T07:24:08.803Z,19.60
2023-04-30T07:26:38.589Z,19.40
2023-04-30T07:29:06.908Z,23.10
2023-04-30T07:31:35.138Z,21.60
2023-04-30T07:34:03.347Z,24.23
2023-04-30T07:36:31.615Z,22.17
2023-04-30T07:38:59.903Z,21.43
2023-04-30T07:41:28.203Z,20.97
2023-04-30T07:43:57.806Z,19.37
2023-04-30T07:46:26.232Z,21.83
2023-04-30T07:48:54.522Z,20.60
2023-04-30T07:51:22.750Z,19.00
2023-04-30T07:53:53.151Z,20.40
2023-04-30T07:56:21.594Z,20.60
2023-04-30T07:58:49.828Z,21.20
2023-04-30T08:01:19.419Z,21.80
2023-04-30T08:03:47.719Z,20.87
2023-04-30T08:06:16.132Z,19.30
2023-04-30T08:08:44.352Z,19.00
2023-04-30T08:11:12.842Z,19.17
2023-04-30T08:13:41.894Z,21.10
2023-04-30T08:16:10.363Z,25.43
2023-04-30T08:18:43.895Z,20.73
2023-04-30T08:21:12.629Z,19.43
2023-04-30T08:23:40.903Z,20.97
2023-04-30T08:26:09.180Z,19.03
2023-04-30T08:28:37.489Z,19.53
2023-04-30T08:31:06.145Z,18.50
2023-04-30T08:33:34.353Z,21.37
2023-04-30T08:36:04.054Z,20.55
2023-04-30T08:38:32.303Z,21.23
2023-04-30T08:41:10.261Z,18.27
2023-04-30T08:43:38.734Z,18.40
2023-04-30T08:46:07.218Z,20.08
2023-04-30T08:48:35.814Z,19.73
2023-04-30T08:51:06.251Z,17.85
2023-04-30T08:53:36.990Z,17.35
2023-04-30T08:56:05.952Z,16.20
2023-04-30T08:58:34.401Z,17.90
2023-04-30T09:01:03.793Z,16.77
2023-04-30T09:03:32.634Z,19.20
2023-04-30T09:06:01.065Z,15.57
2023-04-30T09:08:48.020Z,18.90
2023-04-30T09:11:26.602Z,17.65
2023-04-30T09:13:56.629Z,17.58
2023-04-30T09:16:25.875Z,16.95
2023-04-30T09:18:54.639Z,17.58
2023-04-30T09:21:33.039Z,17.58
2023-04-30T09:24:04.198Z,15.73
2023-04-30T09:26:34.512Z,14.15
2023-04-30T09:29:07.913Z,15.32
2023-04-30T09:31:37.580Z,17.70
2023-04-30T09:34:06.393Z,15.77
2023-04-30T09:36:35.303Z,16.98
2023-04-30T09:39:15.584Z,13.27
2023-04-30T09:41:45.103Z,13.60
2023-04-30T09:44:28.886Z,14.05
2023-04-30T09:46:58.740Z,12.43
2023-04-30T09:49:27.883Z,14.45
2023-04-30T09:51:57.560Z,13.32
2023-04-30T09:54:29.983Z,12.10
2023-04-30T09:56:59.519Z,13.32
2023-04-30T09:59:32.126Z,12.35
2023-04-30T10:02:02.119Z,13.43
2023-04-30T10:04:33.411Z,12.80
2023-04-30T10:07:05.021Z,13.85
2023-04-30T10:09:42.115Z,9.70
2023-04-30T10:12:15.287Z,11.25
2023-04-30T10:14:49.448Z,10.50
2023-04-30T10:17:19.366Z,8.18
2023-04-30T10:19:50.979Z,6.72
2023-04-30T10:22:20.730Z,8.90
2023-04-30T10:24:51.724Z,9.85
2023-04-30T10:27:21.377Z,9.70
2023-04-30T10:29:51.358Z,8.05
2023-04-30T10:32:21.542Z,8.32
2023-04-30T10:34:55.857Z,7.90
2023-04-30T10:37:32.360Z,6.93
2023-04-30T10:40:05.081Z,7.55
2023-04-30T10:42:35.891Z,5.88
2023-04-30T10:45:04.707Z,7.43
2023-04-30T10:47:33.182Z,7.55
2023-04-30T10:50:05.425Z,7.10
2023-04-30T10:52:33.787Z,8.90
2023-04-30T10:55:06.050Z,8.18
2023-04-30T10:57:42.571Z,7.40
2023-04-30T11:00:20.945Z,10.93
2023-04-30T11:02:50.076Z,7.28
2023-04-30T11:05:19.857Z,5.65
2023-04-30T11:07:50.322Z,5.45
2023-04-30T11:10:22.992Z,6.00
2023-04-30T11:12:52.420Z,6.78
2023-04-30T11:15:23.064Z,6.38
2023-04-30T11:17:51.577Z,7.25
2023-04-30T11:20:22.073Z,5.53
2023-04-30T11:23:08.915Z,5.72
2023-04-30T11:25:43.119Z,3.72
2023-04-30T11:28:16.610Z,6.75
2023-04-30T11:30:53.087Z,4.68
2023-04-30T11:33:22.370Z,4.68
2023-04-30T11:35:53.521Z,4.45
2023-04-30T11:38:23.712Z,3.45
2023-04-30T11:40:54.913Z,4.25
2023-04-30T11:43:24.561Z,4.80
2023-04-30T11:46:04.420Z,2.92
2023-04-30T11:48:33.415Z,3.90
2023-04-30T11:51:04.620Z,3.63
2023-04-30T11:53:33.007Z,4.97
2023-04-30T11:56:06.427Z,2.83
2023-04-30T11:58:35.730Z,2.80
2023-04-30T12:01:03.956Z,4.93
2023-04-30T12:03:33.499Z,3.92
2023-04-30T12:06:02.459Z,2.78
2023-04-30T12:08:30.752Z,4.35
2023-04-30T12:10:59.060Z,2.45
2023-04-30T12:13:28.948Z,4.32
2023-04-30T12:16:00.914Z,3.70
2023-04-30T12:18:29.264Z,3.70
2023-04-30T12:20:57.619Z,3.53
2023-04-30T12:23:26.119Z,2.42
2023-04-30T12:25:54.389Z,3.50
2023-04-30T12:28:25.469Z,3.08
2023-04-30T12:30:56.243Z,2.83
2023-04-30T12:33:24.522Z,3.65
2023-04-30T12:35:54.084Z,4.88
2023-04-30T12:38:23.389Z,2.42
2023-04-30T12:40:51.679Z,2.83
2023-04-30T12:43:20.150Z,3.08
2023-04-30T12:45:51.707Z,3.80
2023-04-30T12:48:23.255Z,3.50
2023-04-30T12:50:56.418Z,4.15
2023-04-30T12:53:25.031Z,3.20
2023-04-30T12:56:10.429Z,3.25
2023-04-30T12:58:39.296Z,3.05
2023-04-30T13:01:12.634Z,4.15
2023-04-30T13:03:42.866Z,4.30
2023-04-30T13:06:11.293Z,3.70
2023-04-30T13:08:56.277Z,2.72
2023-04-30T13:11:26.278Z,2.97
2023-04-30T13:13:55.844Z,2.72
2023-04-30T13:16:24.953Z,2.30
2023-04-30T13:18:55.324Z,2.78
2023-04-30T13:21:25.082Z,2.40
2023-04-30T13:23:54.726Z,2.50
2023-04-30T13:26:24.618Z,2.85
2023-04-30T13:28:53.129Z,2.88
2023-04-30T13:31:22.276Z,2.88
2023-04-30T13:33:50.838Z,5.18
2023-04-30T13:36:21.011Z,2.83
2023-04-30T13:38:49.336Z,3.65
2023-04-30T13:41:17.790Z,4.07
2023-04-30T13:43:47.638Z,2.88
2023-04-30T13:46:16.739Z,3.58
2023-04-30T13:48:48.183Z,2.72
2023-04-30T13:51:16.443Z,2.90
2023-04-30T13:53:46.135Z,4.85
2023-04-30T13:56:15.405Z,3.80
2023-04-30T13:58:44.108Z,3.00
2023-04-30T14:01:12.369Z,3.85
2023-04-30T14:03:41.042Z,3.83
2023-04-30T14:06:09.510Z,3.50
2023-04-30T14:08:37.719Z,3.47
2023-04-30T14:11:07.444Z,3.28
2023-04-30T14:13:35.726Z,3.08
2023-04-30T14:16:04.160Z,2.45
2023-04-30T14:18:32.577Z,3.67
2023-04-30T14:21:00.853Z,2.55
2023-04-30T14:23:29.376Z,2.30
2023-04-30T14:25:57.659Z,2.63
2023-04-30T14:28:27.259Z,2.35
2023-04-30T14:30:55.517Z,2.08
2023-04-30T14:33:23.767Z,2.42
2023-04-30T14:35:51.973Z,3.03
2023-04-30T14:38:20.721Z,3.03
2023-04-30T14:40:48.953Z,3.60
2023-04-30T14:43:17.358Z,3.65
2023-04-30T14:45:47.203Z,3.88
2023-04-30T14:48:15.534Z,2.95
2023-04-30T14:50:44.834Z,4.72
2023-04-30T14:53:13.299Z,3.08
2023-04-30T14:55:41.888Z,7.45
2023-04-30T14:58:10.198Z,2.83
2023-04-30T15:00:38.387Z,3.10
2023-04-30T15:03:08.187Z,3.13
2023-04-30T15:05:36.884Z,2.80
2023-04-30T15:08:06.594Z,4.22
2023-04-30T15:10:35.397Z,3.08
2023-04-30T15:13:04.087Z,5.15
2023-04-30T15:15:32.493Z,3.15
2023-04-30T15:18:04.051Z,2.85
2023-04-30T15:20:33.702Z,2.78
2023-04-30T15:23:01.967Z,4.97
2023-04-30T15:25:30.461Z,4.18
2023-04-30T15:27:59.563Z,3.10
2023-04-30T15:30:28.849Z,4.18
2023-04-30T15:32:57.115Z,3.45
2023-04-30T15:35:26.528Z,5.82
2023-04-30T15:37:56.165Z,3.50
2023-04-30T15:40:24.630Z,3.33
2023-04-30T15:42:52.848Z,3.40
2023-04-30T15:45:21.769Z,3.53
2023-04-30T15:47:50.039Z,5.13
2023-04-30T15:50:18.342Z,3.08
2023-04-30T15:52:46.577Z,2.50
2023-04-30T15:55:16.261Z,3.30
2023-04-30T15:57:44.730Z,2.75
2023-04-30T16:00:15.199Z,3.08
2023-04-30T16:02:43.630Z,3.17
2023-04-30T16:05:12.281Z,2.53
2023-04-30T16:07:43.585Z,3.22
2023-04-30T16:10:13.114Z,4.10
2023-04-30T16:12:42.743Z,1.85
2023-04-30T16:15:12.608Z,3.95
2023-04-30T16:17:41.095Z,2.55
2023-04-30T16:20:10.498Z,4.88
2023-04-30T16:22:38.914Z,4.70
2023-04-30T16:25:10.002Z,5.47
2023-04-30T16:27:38.336Z,4.35
2023-04-30T16:30:09.642Z,3.72
2023-04-30T16:32:38.040Z,4.15
2023-04-30T16:35:07.179Z,4.88
2023-04-30T16:37:35.898Z,3.42
2023-04-30T16:40:06.411Z,3.70
2023-04-30T16:42:35.209Z,2.63
2023-04-30T16:45:03.646Z,2.65
2023-04-30T16:47:33.986Z,5.07
2023-04-30T16:50:02.522Z,2.85
2023-04-30T16:52:30.980Z,4.38
2023-04-30T16:54:59.193Z,2.78
2023-04-30T16:57:27.431Z,3.05
2023-04-30T16:59:55.860Z,2.60
2023-04-30T17:02:24.652Z,3.67
2023-04-30T17:04:54.326Z,4.13
2023-04-30T17:07:22.587Z,5.22
2023-04-30T17:09:50.790Z,5.38
2023-04-30T17:12:19.074Z,3.97
2023-04-30T17:14:47.364Z,3.08
2023-04-30T17:17:16.021Z,4.15
2023-04-30T17:19:44.336Z,4.57
2023-04-30T17:22:15.050Z,3.70
2023-04-30T17:24:43.275Z,2.30
2023-04-30T17:27:11.716Z,3.72
2023-04-30T17:29:40.038Z,6.03
2023-04-30T17:32:09.773Z,3.20
2023-04-30T17:34:38.429Z,2.95
2023-04-30T17:37:08.354Z,2.78
2023-04-30T17:39:37.908Z,3.70
2023-04-30T17:42:06.406Z,4.20
2023-04-30T17:44:34.670Z,3.05
2023-04-30T17:47:03.310Z,2.67
2023-04-30T17:49:31.611Z,3.20
2023-04-30T17:52:01.240Z,5.63
2023-04-30T17:54:30.625Z,3.10
2023-04-30T17:57:01.178Z,6.03
2023-04-30T17:59:30.942Z,4.35
2023-04-30T18:01:59.744Z,5.35
2023-04-30T18:04:35.543Z,9.10
2023-04-30T18:07:03.778Z,4.68
2023-04-30T18:09:32.249Z,4.25
2023-04-30T18:12:01.903Z,3.53
2023-04-30T18:14:30.171Z,2.60
2023-04-30T18:16:58.710Z,4.25
2023-04-30T18:19:26.966Z,3.45
2023-04-30T18:21:56.756Z,4.00
2023-04-30T18:24:27.624Z,4.70
2023-04-30T18:26:55.955Z,5.65
2023-04-30T18:29:25.770Z,4.00
2023-04-30T18:31:54.088Z,3.97
2023-04-30T18:34:22.477Z,3.83
2023-04-30T18:36:50.813Z,3.75
2023-04-30T18:39:19.386Z,4.55
2023-04-30T18:41:47.839Z,4.75
2023-04-30T18:44:16.479Z,4.78
2023-04-30T18:46:46.170Z,6.05
2023-04-30T18:49:14.395Z,5.38
2023-04-30T18:51:42.672Z,4.28
2023-04-30T18:54:12.540Z,4.57
2023-04-30T18:56:41.111Z,4.20
2023-04-30T18:59:10.439Z,4.72
2023-04-30T19:01:38.749Z,5.35
2023-04-30T19:04:13.631Z,5.60
2023-04-30T19:06:41.968Z,4.05
2023-04-30T19:09:10.269Z,4.03
2023-04-30T19:11:38.554Z,4.85
2023-04-30T19:14:07.399Z,5.00
2023-04-30T19:16:35.687Z,5.53
2023-04-30T19:19:04.072Z,5.10
2023-04-30T19:21:36.226Z,4.85
2023-04-30T19:24:05.512Z,4.82
2023-04-30T19:26:34.730Z,6.03
2023-04-30T19:29:03.437Z,5.90
2023-04-30T19:31:31.820Z,5.80
2023-04-30T19:34:01.237Z,5.40
2023-04-30T19:36:29.511Z,6.03
2023-04-30T19:38:59.216Z,6.55
2023-04-30T19:41:27.711Z,6.32
2023-04-30T19:43:56.398Z,6.95
2023-04-30T19:46:24.692Z,6.88
2023-04-30T19:48:52.928Z,9.05
2023-04-30T19:51:21.155Z,8.13
2023-04-30T19:53:50.386Z,7.75
2023-04-30T19:56:20.048Z,7.65
2023-04-30T19:58:48.526Z,6.97
2023-04-30T20:01:17.323Z,7.43
2023-04-30T20:03:45.811Z,7.38
2023-04-30T20:06:14.142Z,6.63
2023-04-30T20:08:42.395Z,6.65
2023-04-30T20:11:10.684Z,6.72
2023-04-30T20:13:40.275Z,7.57
2023-04-30T20:16:11.302Z,7.13
2023-04-30T20:18:39.633Z,6.40
2023-04-30T20:21:08.503Z,6.03
2023-04-30T20:23:39.306Z,4.93
2023-04-30T20:26:08.314Z,6.60
2023-04-30T20:28:36.745Z,5.13
2023-04-30T20:31:07.410Z,4.90
2023-04-30T20:33:35.663Z,6.05
2023-04-30T20:36:04.048Z,5.15
2023-04-30T20:38:32.506Z,5.93
2023-04-30T20:41:00.755Z,5.22
2023-04-30T20:43:29.230Z,5.03
2023-04-30T20:45:58.862Z,5.45
2023-04-30T20:48:28.719Z,6.25
2023-04-30T20:50:57.025Z,5.88
2023-04-30T20:53:25.306Z,4.97
2023-04-30T20:55:59.704Z,5.15
2023-04-30T20:58:28.238Z,6.43
2023-04-30T21:00:56.672Z,5.38
2023-04-30T21:03:25.096Z,5.75
2023-04-30T21:05:54.807Z,5.20
2023-04-30T21:08:22.990Z,6.13
2023-04-30T21:10:53.896Z,5.60
2023-04-30T21:13:22.302Z,5.90
2023-04-30T21:15:54.232Z,6.47
2023-04-30T21:18:22.481Z,5.72
2023-04-30T21:20:50.745Z,5.43
2023-04-30T21:23:20.450Z,4.97
2023-04-30T21:25:48.694Z,6.53
2023-04-30T21:28:17.322Z,5.03
2023-04-30T21:30:45.915Z,6.97
2023-04-30T21:33:14.418Z,5.30
2023-04-30T21:35:42.753Z,6.03
2023-04-30T21:38:12.468Z,5.38
2023-04-30T21:40:44.121Z,7.70
2023-04-30T21:43:12.533Z,5.60
2023-04-30T21:45:43.153Z,5.05
2023-04-30T21:48:11.693Z,7.45
2023-04-30T21:50:40.234Z,4.78
2023-04-30T21:53:08.831Z,4.90
2023-04-30T21:55:37.143Z,6.35
2023-04-30T21:58:06.818Z,6.55
2023-04-30T22:00:36.026Z,5.53
2023-04-30T22:03:04.664Z,5.15
2023-04-30T22:05:32.979Z,4.22
2023-04-30T22:08:01.840Z,4.93
2023-04-30T22:10:30.210Z,5.15
2023-04-30T22:12:58.492Z,4.65
2023-04-30T22:15:37.300Z,4.60
2023-04-30T22:18:15.791Z,3.70
2023-04-30T22:20:44.038Z,4.05
2023-04-30T22:23:12.348Z,5.28
2023-04-30T22:25:40.679Z,4.13
2023-04-30T22:28:10.187Z,4.20
2023-04-30T22:30:40.536Z,4.22
2023-04-30T22:33:08.948Z,4.00
2023-04-30T22:35:38.199Z,4.35
2023-04-30T22:38:06.435Z,3.78
2023-04-30T22:40:36.305Z,5.60
2023-04-30T22:43:05.914Z,6.35
2023-04-30T22:45:36.990Z,4.68
2023-04-30T22:48:07.509Z,3.47
2023-04-30T22:50:35.746Z,4.38
2023-04-30T22:53:03.969Z,4.13
2023-04-30T22:55:32.851Z,3.72
2023-04-30T22:58:01.730Z,4.70
2023-04-30T23:00:30.168Z,3.63
2023-04-30T23:02:58.438Z,4.50
2023-04-30T23:05:29.167Z,4.45
2023-04-30T23:07:57.435Z,3.33
2023-04-30T23:10:25.781Z,4.75
2023-04-30T23:12:56.143Z,3.13
2023-04-30T23:15:24.376Z,3.90
2023-04-30T23:17:54.510Z,3.90
2023-04-30T23:20:23.579Z,5.03
2023-04-30T23:22:53.250Z,5.35
2023-04-30T23:25:21.584Z,4.63
2023-04-30T23:27:49.887Z,4.45
2023-04-30T23:30:18.283Z,2.85
2023-04-30T23:32:46.626Z,3.97
2023-04-30T23:35:14.841Z,4.53
2023-04-30T23:37:43.037Z,3.80
2023-04-30T23:40:13.368Z,4.15
2023-04-30T23:42:41.742Z,4.35
2023-04-30T23:45:11.118Z,3.90
2023-04-30T23:47:39.450Z,5.47
2023-04-30T23:50:09.086Z,3.38
2023-04-30T23:52:37.752Z,3.85
2023-04-30T23:55:07.254Z,4.97
2023-04-30T23:57:36.886Z,4.32
